sensor_id;sensor_type;location;lat;lon;timestamp;temperature;humidity
48454;DHT22;34261;55.678;12.464;2022-08-01T00:01:30;19.40;99.90
48454;DHT22;34261;55.678;12.464;2022-08-01T00:03:56;19.40;99.90
48454;DHT22;34261;55.678;12.464;2022-08-01T00:06:22;19.40;99.90
48454;DHT22;34261;55.678;12.464;2022-08-01T00:08:48;19.40;99.90
48454;DHT22;34261;55.678;12.464;2022-08-01T00:11:15;19.40;99.90
48454;DHT22;34261;55.678;12.464;2022-08-01T00:13:42;19.40;99.90
48454;DHT22;34261;55.678;12.464;2022-08-01T00:16:10;19.40;99.90
48454;DHT22;34261;55.678;12.464;2022-08-01T00:18:38;19.40;99.90
48454;DHT22;34261;55.678;12.464;2022-08-01T00:21:04;19.30;99.90
48454;DHT22;34261;55.678;12.464;2022-08-01T00:23:30;19.40;99.90
48454;DHT22;34261;55.678;12.464;2022-08-01T00:25:57;19.40;99.90
48454;DHT22;34261;55.678;12.464;2022-08-01T00:28:25;19.40;99.90
48454;DHT22;34261;55.678;12.464;2022-08-01T00:30:52;19.40;99.90
48454;DHT22;34261;55.678;12.464;2022-08-01T00:33:19;19.40;99.90
48454;DHT22;34261;55.678;12.464;2022-08-01T00:35:48;19.40;99.90
48454;DHT22;34261;55.678;12.464;2022-08-01T00:38:14;19.40;99.90
48454;DHT22;34261;55.678;12.464;2022-08-01T00:40:41;19.40;99.90
48454;DHT22;34261;55.678;12.464;2022-08-01T00:43:09;19.40;99.90
48454;DHT22;34261;55.678;12.464;2022-08-01T00:45:35;19.40;99.90
48454;DHT22;34261;55.678;12.464;2022-08-01T00:48:03;19.40;99.90
48454;DHT22;34261;55.678;12.464;2022-08-01T00:50:29;19.40;99.90
48454;DHT22;34261;55.678;12.464;2022-08-01T00:52:58;19.40;99.90
48454;DHT22;34261;55.678;12.464;2022-08-01T00:55:26;19.50;99.90
48454;DHT22;34261;55.678;12.464;2022-08-01T00:57:55;19.40;99.90
48454;DHT22;34261;55.678;12.464;2022-08-01T01:00:24;19.40;99.90
48454;DHT22;34261;55.678;12.464;2022-08-01T01:02:50;19.40;99.90
48454;DHT22;34261;55.678;12.464;2022-08-01T01:05:16;19.40;99.90
48454;DHT22;34261;55.678;12.464;2022-08-01T01:07:56;19.40;99.90
48454;DHT22;34261;55.678;12.464;2022-08-01T01:10:52;19.50;99.90
48454;DHT22;34261;55.678;12.464;2022-08-01T01:13:23;19.40;99.90
48454;DHT22;34261;55.678;12.464;2022-08-01T01:16:04;19.40;99.90
48454;DHT22;34261;55.678;12.464;2022-08-01T01:18:37;19.40;99.90
48454;DHT22;34261;55.678;12.464;2022-08-01T01:29:46;19.40;99.90
48454;DHT22;34261;55.678;12.464;2022-08-01T01:32:18;19.40;99.90
48454;DHT22;34261;55.678;12.464;2022-08-01T01:34:49;19.40;99.90
48454;DHT22;34261;55.678;12.464;2022-08-01T01:37:18;19.30;99.90
48454;DHT22;34261;55.678;12.464;2022-08-01T01:39:46;19.40;99.90
48454;DHT22;34261;55.678;12.464;2022-08-01T01:42:16;19.40;99.90
48454;DHT22;34261;55.678;12.464;2022-08-01T01:44:45;19.40;99.90
48454;DHT22;34261;55.678;12.464;2022-08-01T01:47:13;19.40;99.90
48454;DHT22;34261;55.678;12.464;2022-08-01T01:49:40;19.40;99.90
48454;DHT22;34261;55.678;12.464;2022-08-01T01:52:07;19.40;99.90
48454;DHT22;34261;55.678;12.464;2022-08-01T01:54:40;19.30;99.90
48454;DHT22;34261;55.678;12.464;2022-08-01T01:57:08;19.40;99.90
48454;DHT22;34261;55.678;12.464;2022-08-01T01:59:37;19.40;99.90
48454;DHT22;34261;55.678;12.464;2022-08-01T02:02:05;19.40;99.90
48454;DHT22;34261;55.678;12.464;2022-08-01T02:04:34;19.40;99.90
48454;DHT22;34261;55.678;12.464;2022-08-01T02:07:01;19.40;99.90
48454;DHT22;34261;55.678;12.464;2022-08-01T02:09:29;19.40;99.90
48454;DHT22;34261;55.678;12.464;2022-08-01T02:11:57;19.40;99.90
48454;DHT22;34261;55.678;12.464;2022-08-01T02:14:25;19.30;99.90
48454;DHT22;34261;55.678;12.464;2022-08-01T02:16:55;19.30;99.90
48454;DHT22;34261;55.678;12.464;2022-08-01T02:19:23;19.30;99.90
48454;DHT22;34261;55.678;12.464;2022-08-01T02:21:56;19.30;99.90
48454;DHT22;34261;55.678;12.464;2022-08-01T02:24:45;19.30;99.90
48454;DHT22;34261;55.678;12.464;2022-08-01T02:27:17;19.30;99.90
48454;DHT22;34261;55.678;12.464;2022-08-01T02:29:50;19.30;99.90
48454;DHT22;34261;55.678;12.464;2022-08-01T02:32:23;19.40;99.90
48454;DHT22;34261;55.678;12.464;2022-08-01T02:34:51;19.40;99.90
48454;DHT22;34261;55.678;12.464;2022-08-01T02:37:18;19.30;99.90
48454;DHT22;34261;55.678;12.464;2022-08-01T02:39:48;19.30;99.90
48454;DHT22;34261;55.678;12.464;2022-08-01T02:42:18;19.30;99.90
48454;DHT22;34261;55.678;12.464;2022-08-01T02:44:45;19.40;99.90
48454;DHT22;34261;55.678;12.464;2022-08-01T02:47:12;19.30;99.90
48454;DHT22;34261;55.678;12.464;2022-08-01T02:49:45;19.30;99.90
48454;DHT22;34261;55.678;12.464;2022-08-01T02:52:15;19.40;99.90
48454;DHT22;34261;55.678;12.464;2022-08-01T02:54:43;19.40;99.90
48454;DHT22;34261;55.678;12.464;2022-08-01T02:57:10;19.40;99.90
48454;DHT22;34261;55.678;12.464;2022-08-01T02:59:38;19.30;99.90
48454;DHT22;34261;55.678;12.464;2022-08-01T03:02:05;19.30;99.90
48454;DHT22;34261;55.678;12.464;2022-08-01T03:04:33;19.30;99.90
48454;DHT22;34261;55.678;12.464;2022-08-01T03:07:02;19.30;99.90
48454;DHT22;34261;55.678;12.464;2022-08-01T03:09:30;19.30;99.90
48454;DHT22;34261;55.678;12.464;2022-08-01T03:12:00;19.30;99.90
48454;DHT22;34261;55.678;12.464;2022-08-01T03:14:26;19.30;99.90
48454;DHT22;34261;55.678;12.464;2022-08-01T03:16:54;19.30;99.90
48454;DHT22;34261;55.678;12.464;2022-08-01T03:19:24;19.30;99.90
48454;DHT22;34261;55.678;12.464;2022-08-01T03:21:50;19.30;99.90
48454;DHT22;34261;55.678;12.464;2022-08-01T03:24:18;19.30;99.90
48454;DHT22;34261;55.678;12.464;2022-08-01T03:26:44;19.30;99.90
48454;DHT22;34261;55.678;12.464;2022-08-01T03:29:18;19.20;99.90
48454;DHT22;34261;55.678;12.464;2022-08-01T03:31:46;19.20;99.90
48454;DHT22;34261;55.678;12.464;2022-08-01T03:34:13;19.30;99.90
48454;DHT22;34261;55.678;12.464;2022-08-01T03:37:03;19.30;99.90
48454;DHT22;34261;55.678;12.464;2022-08-01T03:39:39;19.30;99.90
48454;DHT22;34261;55.678;12.464;2022-08-01T03:42:14;19.20;99.90
48454;DHT22;34261;55.678;12.464;2022-08-01T03:44:40;19.20;99.90
48454;DHT22;34261;55.678;12.464;2022-08-01T03:47:08;19.20;99.90
48454;DHT22;34261;55.678;12.464;2022-08-01T03:49:43;19.20;99.90
48454;DHT22;34261;55.678;12.464;2022-08-01T03:52:10;19.20;99.90
48454;DHT22;34261;55.678;12.464;2022-08-01T03:54:40;19.20;99.90
48454;DHT22;34261;55.678;12.464;2022-08-01T03:57:06;19.20;99.90
48454;DHT22;34261;55.678;12.464;2022-08-01T03:59:35;19.20;99.90
48454;DHT22;34261;55.678;12.464;2022-08-01T04:02:02;19.20;99.90
48454;DHT22;34261;55.678;12.464;2022-08-01T04:04:28;19.20;99.90
48454;DHT22;34261;55.678;12.464;2022-08-01T04:06:54;19.20;99.90
48454;DHT22;34261;55.678;12.464;2022-08-01T04:09:21;19.20;99.90
48454;DHT22;34261;55.678;12.464;2022-08-01T04:11:47;19.20;99.90
48454;DHT22;34261;55.678;12.464;2022-08-01T04:14:13;19.20;99.90
48454;DHT22;34261;55.678;12.464;2022-08-01T04:16:38;19.20;99.90
48454;DHT22;34261;55.678;12.464;2022-08-01T04:19:04;19.20;99.90
48454;DHT22;34261;55.678;12.464;2022-08-01T04:21:34;19.20;99.90
48454;DHT22;34261;55.678;12.464;2022-08-01T04:24:03;19.20;99.90
48454;DHT22;34261;55.678;12.464;2022-08-01T04:26:32;19.20;99.90
48454;DHT22;34261;55.678;12.464;2022-08-01T04:29:00;19.20;99.90
48454;DHT22;34261;55.678;12.464;2022-08-01T04:31:28;19.20;99.90
48454;DHT22;34261;55.678;12.464;2022-08-01T04:33:55;19.20;99.90
48454;DHT22;34261;55.678;12.464;2022-08-01T04:36:23;19.20;99.90
48454;DHT22;34261;55.678;12.464;2022-08-01T04:38:54;19.30;99.90
48454;DHT22;34261;55.678;12.464;2022-08-01T04:41:22;19.30;99.90
48454;DHT22;34261;55.678;12.464;2022-08-01T04:43:48;19.30;99.90
48454;DHT22;34261;55.678;12.464;2022-08-01T04:46:14;19.30;99.90
48454;DHT22;34261;55.678;12.464;2022-08-01T04:48:41;19.30;99.90
48454;DHT22;34261;55.678;12.464;2022-08-01T04:51:17;19.30;99.90
48454;DHT22;34261;55.678;12.464;2022-08-01T04:53:44;19.30;99.90
48454;DHT22;34261;55.678;12.464;2022-08-01T04:56:11;19.30;99.90
48454;DHT22;34261;55.678;12.464;2022-08-01T04:58:41;19.30;99.90
48454;DHT22;34261;55.678;12.464;2022-08-01T05:01:07;19.40;99.90
48454;DHT22;34261;55.678;12.464;2022-08-01T05:03:33;19.40;99.90
48454;DHT22;34261;55.678;12.464;2022-08-01T05:05:59;19.40;99.90
48454;DHT22;34261;55.678;12.464;2022-08-01T05:08:24;19.40;99.90
48454;DHT22;34261;55.678;12.464;2022-08-01T05:10:50;19.40;99.90
48454;DHT22;34261;55.678;12.464;2022-08-01T05:13:16;19.40;99.90
48454;DHT22;34261;55.678;12.464;2022-08-01T05:15:41;19.40;99.90
48454;DHT22;34261;55.678;12.464;2022-08-01T05:18:07;19.40;99.90
48454;DHT22;34261;55.678;12.464;2022-08-01T05:20:33;19.40;99.90
48454;DHT22;34261;55.678;12.464;2022-08-01T05:22:58;19.40;99.90
48454;DHT22;34261;55.678;12.464;2022-08-01T05:25:24;19.30;99.90
48454;DHT22;34261;55.678;12.464;2022-08-01T05:27:50;19.20;99.90
48454;DHT22;34261;55.678;12.464;2022-08-01T05:30:15;19.20;99.90
48454;DHT22;34261;55.678;12.464;2022-08-01T05:32:41;19.20;99.90
48454;DHT22;34261;55.678;12.464;2022-08-01T05:35:08;19.30;99.90
48454;DHT22;34261;55.678;12.464;2022-08-01T05:37:34;19.30;99.90
48454;DHT22;34261;55.678;12.464;2022-08-01T05:39:59;19.40;99.90
48454;DHT22;34261;55.678;12.464;2022-08-01T05:42:25;19.40;99.90
48454;DHT22;34261;55.678;12.464;2022-08-01T05:44:51;19.30;99.90
48454;DHT22;34261;55.678;12.464;2022-08-01T05:47:17;19.30;99.90
48454;DHT22;34261;55.678;12.464;2022-08-01T05:49:44;19.40;99.90
48454;DHT22;34261;55.678;12.464;2022-08-01T05:52:10;19.40;99.90
48454;DHT22;34261;55.678;12.464;2022-08-01T05:54:36;19.30;99.90
48454;DHT22;34261;55.678;12.464;2022-08-01T05:57:02;19.30;99.90
48454;DHT22;34261;55.678;12.464;2022-08-01T05:59:28;19.30;99.90
48454;DHT22;34261;55.678;12.464;2022-08-01T06:01:54;19.30;99.90
48454;DHT22;34261;55.678;12.464;2022-08-01T06:04:20;19.20;99.90
48454;DHT22;34261;55.678;12.464;2022-08-01T06:06:45;19.20;99.90
48454;DHT22;34261;55.678;12.464;2022-08-01T06:09:11;19.30;99.90
48454;DHT22;34261;55.678;12.464;2022-08-01T06:11:36;19.20;99.90
48454;DHT22;34261;55.678;12.464;2022-08-01T06:14:02;19.30;99.90
48454;DHT22;34261;55.678;12.464;2022-08-01T06:16:28;19.20;99.90
48454;DHT22;34261;55.678;12.464;2022-08-01T06:18:53;19.30;99.90
48454;DHT22;34261;55.678;12.464;2022-08-01T06:21:19;19.40;99.90
48454;DHT22;34261;55.678;12.464;2022-08-01T06:23:45;19.40;99.90
48454;DHT22;34261;55.678;12.464;2022-08-01T06:26:11;19.40;99.90
48454;DHT22;34261;55.678;12.464;2022-08-01T06:28:37;19.40;99.90
48454;DHT22;34261;55.678;12.464;2022-08-01T06:31:03;19.40;99.90
48454;DHT22;34261;55.678;12.464;2022-08-01T06:33:29;19.50;99.90
48454;DHT22;34261;55.678;12.464;2022-08-01T06:35:55;19.50;99.90
48454;DHT22;34261;55.678;12.464;2022-08-01T06:38:20;19.40;99.90
48454;DHT22;34261;55.678;12.464;2022-08-01T06:40:46;19.40;99.90
48454;DHT22;34261;55.678;12.464;2022-08-01T06:43:12;19.40;99.90
48454;DHT22;34261;55.678;12.464;2022-08-01T06:45:41;19.40;99.90
48454;DHT22;34261;55.678;12.464;2022-08-01T06:48:06;19.40;99.90
48454;DHT22;34261;55.678;12.464;2022-08-01T06:50:32;19.40;99.90
48454;DHT22;34261;55.678;12.464;2022-08-01T06:52:58;19.40;99.90
48454;DHT22;34261;55.678;12.464;2022-08-01T06:55:23;19.40;99.90
48454;DHT22;34261;55.678;12.464;2022-08-01T06:57:50;19.30;99.90
48454;DHT22;34261;55.678;12.464;2022-08-01T07:00:18;19.30;99.90
48454;DHT22;34261;55.678;12.464;2022-08-01T07:02:46;19.20;99.90
48454;DHT22;34261;55.678;12.464;2022-08-01T07:05:12;19.10;99.90
48454;DHT22;34261;55.678;12.464;2022-08-01T07:07:38;19.20;99.90
48454;DHT22;34261;55.678;12.464;2022-08-01T07:10:04;19.20;99.90
48454;DHT22;34261;55.678;12.464;2022-08-01T07:12:30;19.20;99.90
48454;DHT22;34261;55.678;12.464;2022-08-01T07:14:56;19.30;99.90
48454;DHT22;34261;55.678;12.464;2022-08-01T07:17:21;19.30;99.90
48454;DHT22;34261;55.678;12.464;2022-08-01T07:19:47;19.40;99.90
48454;DHT22;34261;55.678;12.464;2022-08-01T07:22:13;19.40;99.90
48454;DHT22;34261;55.678;12.464;2022-08-01T07:24:39;19.40;99.90
48454;DHT22;34261;55.678;12.464;2022-08-01T07:27:05;19.40;99.90
48454;DHT22;34261;55.678;12.464;2022-08-01T07:29:31;19.40;99.90
48454;DHT22;34261;55.678;12.464;2022-08-01T07:31:57;19.40;99.90
48454;DHT22;34261;55.678;12.464;2022-08-01T07:34:24;19.40;99.90
48454;DHT22;34261;55.678;12.464;2022-08-01T07:36:51;19.30;99.90
48454;DHT22;34261;55.678;12.464;2022-08-01T07:39:16;19.30;99.90
48454;DHT22;34261;55.678;12.464;2022-08-01T07:41:42;19.20;99.90
48454;DHT22;34261;55.678;12.464;2022-08-01T07:44:08;19.20;99.90
48454;DHT22;34261;55.678;12.464;2022-08-01T07:46:34;19.20;99.90
48454;DHT22;34261;55.678;12.464;2022-08-01T07:48:59;19.10;99.90
48454;DHT22;34261;55.678;12.464;2022-08-01T07:51:25;19.10;99.90
48454;DHT22;34261;55.678;12.464;2022-08-01T07:53:51;19.10;99.90
48454;DHT22;34261;55.678;12.464;2022-08-01T07:56:16;19.10;99.90
48454;DHT22;34261;55.678;12.464;2022-08-01T07:58:42;19.10;99.90
48454;DHT22;34261;55.678;12.464;2022-08-01T08:01:08;19.20;99.90
48454;DHT22;34261;55.678;12.464;2022-08-01T08:03:33;19.30;99.90
48454;DHT22;34261;55.678;12.464;2022-08-01T08:05:59;19.20;99.90
48454;DHT22;34261;55.678;12.464;2022-08-01T08:08:24;19.10;99.90
48454;DHT22;34261;55.678;12.464;2022-08-01T08:10:50;19.00;99.90
48454;DHT22;34261;55.678;12.464;2022-08-01T08:13:16;19.00;99.90
48454;DHT22;34261;55.678;12.464;2022-08-01T08:15:41;19.00;99.90
48454;DHT22;34261;55.678;12.464;2022-08-01T08:18:07;19.10;99.90
48454;DHT22;34261;55.678;12.464;2022-08-01T08:20:33;19.20;99.90
48454;DHT22;34261;55.678;12.464;2022-08-01T08:22:58;19.40;99.90
48454;DHT22;34261;55.678;12.464;2022-08-01T08:25:25;19.30;99.90
48454;DHT22;34261;55.678;12.464;2022-08-01T08:27:51;19.20;99.90
48454;DHT22;34261;55.678;12.464;2022-08-01T08:30:17;19.20;99.90
48454;DHT22;34261;55.678;12.464;2022-08-01T08:32:44;19.10;99.90
48454;DHT22;34261;55.678;12.464;2022-08-01T08:35:10;19.10;99.90
48454;DHT22;34261;55.678;12.464;2022-08-01T08:37:36;19.20;99.90
48454;DHT22;34261;55.678;12.464;2022-08-01T08:40:06;19.20;99.90
48454;DHT22;34261;55.678;12.464;2022-08-01T08:42:32;19.20;99.90
48454;DHT22;34261;55.678;12.464;2022-08-01T08:44:57;19.30;99.90
48454;DHT22;34261;55.678;12.464;2022-08-01T08:47:24;19.40;99.90
48454;DHT22;34261;55.678;12.464;2022-08-01T08:49:55;19.50;99.90
48454;DHT22;34261;55.678;12.464;2022-08-01T08:52:21;19.50;99.90
48454;DHT22;34261;55.678;12.464;2022-08-01T08:54:48;19.50;99.90
48454;DHT22;34261;55.678;12.464;2022-08-01T08:57:14;19.60;99.90
48454;DHT22;34261;55.678;12.464;2022-08-01T08:59:42;19.60;99.90
48454;DHT22;34261;55.678;12.464;2022-08-01T09:02:09;19.50;99.90
48454;DHT22;34261;55.678;12.464;2022-08-01T09:04:36;19.50;99.90
48454;DHT22;34261;55.678;12.464;2022-08-01T09:07:04;19.40;99.90
48454;DHT22;34261;55.678;12.464;2022-08-01T09:09:30;19.50;99.90
48454;DHT22;34261;55.678;12.464;2022-08-01T09:11:56;19.40;99.90
48454;DHT22;34261;55.678;12.464;2022-08-01T09:14:22;19.40;99.90
48454;DHT22;34261;55.678;12.464;2022-08-01T09:17:18;19.40;99.90
48454;DHT22;34261;55.678;12.464;2022-08-01T09:19:48;19.30;99.90
48454;DHT22;34261;55.678;12.464;2022-08-01T09:22:17;19.30;99.90
48454;DHT22;34261;55.678;12.464;2022-08-01T09:25:01;19.30;99.90
48454;DHT22;34261;55.678;12.464;2022-08-01T09:27:27;19.40;99.90
48454;DHT22;34261;55.678;12.464;2022-08-01T09:29:53;19.50;99.90
48454;DHT22;34261;55.678;12.464;2022-08-01T09:32:20;19.40;99.90
48454;DHT22;34261;55.678;12.464;2022-08-01T09:34:46;19.40;99.90
48454;DHT22;34261;55.678;12.464;2022-08-01T09:37:12;19.50;99.90
48454;DHT22;34261;55.678;12.464;2022-08-01T09:39:39;19.50;99.90
48454;DHT22;34261;55.678;12.464;2022-08-01T09:42:21;19.50;99.90
48454;DHT22;34261;55.678;12.464;2022-08-01T09:44:47;19.40;99.90
48454;DHT22;34261;55.678;12.464;2022-08-01T09:47:13;19.30;99.90
48454;DHT22;34261;55.678;12.464;2022-08-01T09:49:40;19.30;99.90
48454;DHT22;34261;55.678;12.464;2022-08-01T09:52:21;19.30;99.90
48454;DHT22;34261;55.678;12.464;2022-08-01T09:55:01;19.30;99.90
48454;DHT22;34261;55.678;12.464;2022-08-01T09:57:28;19.10;99.90
48454;DHT22;34261;55.678;12.464;2022-08-01T09:59:56;19.00;99.90
48454;DHT22;34261;55.678;12.464;2022-08-01T10:02:33;18.90;99.90
48454;DHT22;34261;55.678;12.464;2022-08-01T10:05:03;18.90;99.90
48454;DHT22;34261;55.678;12.464;2022-08-01T10:07:29;19.00;99.90
48454;DHT22;34261;55.678;12.464;2022-08-01T10:09:55;18.90;99.90
48454;DHT22;34261;55.678;12.464;2022-08-01T10:12:22;18.80;99.90
48454;DHT22;34261;55.678;12.464;2022-08-01T10:14:50;18.90;99.90
48454;DHT22;34261;55.678;12.464;2022-08-01T10:17:19;18.90;99.90
48454;DHT22;34261;55.678;12.464;2022-08-01T10:19:45;18.90;99.90
48454;DHT22;34261;55.678;12.464;2022-08-01T10:22:13;18.90;99.90
48454;DHT22;34261;55.678;12.464;2022-08-01T10:24:44;19.00;99.90
48454;DHT22;34261;55.678;12.464;2022-08-01T10:27:11;19.00;99.90
48454;DHT22;34261;55.678;12.464;2022-08-01T10:29:47;19.10;99.90
48454;DHT22;34261;55.678;12.464;2022-08-01T10:32:15;19.10;99.90
48454;DHT22;34261;55.678;12.464;2022-08-01T10:34:41;19.00;99.90
48454;DHT22;34261;55.678;12.464;2022-08-01T10:37:07;19.00;99.90
48454;DHT22;34261;55.678;12.464;2022-08-01T10:39:33;19.10;99.90
48454;DHT22;34261;55.678;12.464;2022-08-01T10:42:00;19.30;99.90
48454;DHT22;34261;55.678;12.464;2022-08-01T10:44:27;19.40;99.90
48454;DHT22;34261;55.678;12.464;2022-08-01T10:47:10;19.50;99.90
48454;DHT22;34261;55.678;12.464;2022-08-01T10:49:53;19.70;99.90
48454;DHT22;34261;55.678;12.464;2022-08-01T10:52:21;19.70;99.90
48454;DHT22;34261;55.678;12.464;2022-08-01T10:54:47;19.90;99.90
48454;DHT22;34261;55.678;12.464;2022-08-01T10:57:13;19.90;99.90
48454;DHT22;34261;55.678;12.464;2022-08-01T10:59:50;20.00;99.90
48454;DHT22;34261;55.678;12.464;2022-08-01T11:02:31;20.10;99.90
48454;DHT22;34261;55.678;12.464;2022-08-01T11:05:09;20.20;99.90
48454;DHT22;34261;55.678;12.464;2022-08-01T11:07:48;20.30;99.90
48454;DHT22;34261;55.678;12.464;2022-08-01T11:12:47;20.60;99.90
48454;DHT22;34261;55.678;12.464;2022-08-01T11:15:17;20.80;99.90
48454;DHT22;34261;55.678;12.464;2022-08-01T11:17:52;20.90;99.90
48454;DHT22;34261;55.678;12.464;2022-08-01T11:20:25;20.90;99.90
48454;DHT22;34261;55.678;12.464;2022-08-01T11:30:45;21.30;99.90
48454;DHT22;34261;55.678;12.464;2022-08-01T11:33:19;21.30;99.40
48454;DHT22;34261;55.678;12.464;2022-08-01T11:41:34;21.60;97.30
48454;DHT22;34261;55.678;12.464;2022-08-01T13:19:47;27.60;79.80
48454;DHT22;34261;55.678;12.464;2022-08-01T13:22:20;27.90;80.40
48454;DHT22;34261;55.678;12.464;2022-08-01T13:25:11;28.10;79.40
48454;DHT22;34261;55.678;12.464;2022-08-01T13:27:44;28.00;77.30
48454;DHT22;34261;55.678;12.464;2022-08-01T13:30:15;28.10;78.60
48454;DHT22;34261;55.678;12.464;2022-08-01T13:32:43;28.20;79.00
48454;DHT22;34261;55.678;12.464;2022-08-01T13:35:11;28.10;79.70
48454;DHT22;34261;55.678;12.464;2022-08-01T13:37:41;28.20;77.10
48454;DHT22;34261;55.678;12.464;2022-08-01T13:40:09;28.30;78.50
48454;DHT22;34261;55.678;12.464;2022-08-01T13:42:37;28.60;78.20
48454;DHT22;34261;55.678;12.464;2022-08-01T13:45:07;28.80;77.30
48454;DHT22;34261;55.678;12.464;2022-08-01T13:47:36;28.60;74.50
48454;DHT22;34261;55.678;12.464;2022-08-01T13:50:02;28.30;75.50
48454;DHT22;34261;55.678;12.464;2022-08-01T13:52:28;28.50;77.40
48454;DHT22;34261;55.678;12.464;2022-08-01T13:54:54;28.70;75.90
48454;DHT22;34261;55.678;12.464;2022-08-01T13:57:21;28.50;75.20
48454;DHT22;34261;55.678;12.464;2022-08-01T13:59:47;28.60;76.90
48454;DHT22;34261;55.678;12.464;2022-08-01T14:02:13;28.60;75.00
48454;DHT22;34261;55.678;12.464;2022-08-01T14:04:38;28.70;74.40
48454;DHT22;34261;55.678;12.464;2022-08-01T14:07:04;28.70;75.90
48454;DHT22;34261;55.678;12.464;2022-08-01T14:09:30;28.70;74.50
48454;DHT22;34261;55.678;12.464;2022-08-01T14:11:55;29.00;75.80
48454;DHT22;34261;55.678;12.464;2022-08-01T14:14:21;29.00;73.90
48454;DHT22;34261;55.678;12.464;2022-08-01T14:16:47;29.00;74.80
48454;DHT22;34261;55.678;12.464;2022-08-01T14:19:12;28.90;72.50
48454;DHT22;34261;55.678;12.464;2022-08-01T14:21:39;28.90;72.70
48454;DHT22;34261;55.678;12.464;2022-08-01T14:24:05;28.80;74.20
48454;DHT22;34261;55.678;12.464;2022-08-01T14:26:31;28.90;73.40
48454;DHT22;34261;55.678;12.464;2022-08-01T14:28:57;28.50;70.40
48454;DHT22;34261;55.678;12.464;2022-08-01T14:31:23;28.70;72.40
48454;DHT22;34261;55.678;12.464;2022-08-01T14:33:48;28.80;72.60
48454;DHT22;34261;55.678;12.464;2022-08-01T14:36:14;29.20;73.20
48454;DHT22;34261;55.678;12.464;2022-08-01T14:38:40;29.30;72.50
48454;DHT22;34261;55.678;12.464;2022-08-01T14:41:05;29.40;73.40
48454;DHT22;34261;55.678;12.464;2022-08-01T14:43:31;29.00;72.20
48454;DHT22;34261;55.678;12.464;2022-08-01T14:45:58;29.10;72.30
48454;DHT22;34261;55.678;12.464;2022-08-01T14:48:24;29.00;73.70
48454;DHT22;34261;55.678;12.464;2022-08-01T14:50:49;29.10;72.80
48454;DHT22;34261;55.678;12.464;2022-08-01T14:53:16;29.00;72.50
48454;DHT22;34261;55.678;12.464;2022-08-01T14:55:41;28.80;73.10
48454;DHT22;34261;55.678;12.464;2022-08-01T14:58:07;28.80;73.90
48454;DHT22;34261;55.678;12.464;2022-08-01T15:00:34;28.80;72.10
48454;DHT22;34261;55.678;12.464;2022-08-01T15:03:00;28.70;72.00
48454;DHT22;34261;55.678;12.464;2022-08-01T15:05:25;28.60;71.40
48454;DHT22;34261;55.678;12.464;2022-08-01T15:07:52;28.70;73.30
48454;DHT22;34261;55.678;12.464;2022-08-01T15:10:18;28.70;72.00
48454;DHT22;34261;55.678;12.464;2022-08-01T15:12:53;28.80;72.50
48454;DHT22;34261;55.678;12.464;2022-08-01T15:15:20;28.60;72.60
48454;DHT22;34261;55.678;12.464;2022-08-01T15:17:49;28.40;72.30
48454;DHT22;34261;55.678;12.464;2022-08-01T15:20:22;28.50;72.60
48454;DHT22;34261;55.678;12.464;2022-08-01T15:23:03;28.50;72.50
48454;DHT22;34261;55.678;12.464;2022-08-01T15:25:29;28.50;73.80
48454;DHT22;34261;55.678;12.464;2022-08-01T15:27:57;28.60;72.70
48454;DHT22;34261;55.678;12.464;2022-08-01T15:30:24;28.40;72.50
48454;DHT22;34261;55.678;12.464;2022-08-01T15:32:51;28.30;72.20
48454;DHT22;34261;55.678;12.464;2022-08-01T15:35:18;28.20;72.70
48454;DHT22;34261;55.678;12.464;2022-08-01T15:37:44;27.90;73.50
48454;DHT22;34261;55.678;12.464;2022-08-01T15:40:12;27.60;72.40
48454;DHT22;34261;55.678;12.464;2022-08-01T15:42:38;27.40;73.00
48454;DHT22;34261;55.678;12.464;2022-08-01T15:45:05;27.10;73.20
48454;DHT22;34261;55.678;12.464;2022-08-01T15:50:51;26.70;72.70
48454;DHT22;34261;55.678;12.464;2022-08-01T15:53:20;26.40;73.20
48454;DHT22;34261;55.678;12.464;2022-08-01T15:56:10;26.20;73.00
48454;DHT22;34261;55.678;12.464;2022-08-01T18:10:07;21.20;80.40
48454;DHT22;34261;55.678;12.464;2022-08-01T18:12:49;21.10;80.10
48454;DHT22;34261;55.678;12.464;2022-08-01T18:15:39;21.00;80.60
48454;DHT22;34261;55.678;12.464;2022-08-01T18:18:13;20.90;80.00
48454;DHT22;34261;55.678;12.464;2022-08-01T18:20:51;20.90;80.50
48454;DHT22;34261;55.678;12.464;2022-08-01T18:23:22;20.80;80.30
48454;DHT22;34261;55.678;12.464;2022-08-01T18:25:51;20.80;80.20
48454;DHT22;34261;55.678;12.464;2022-08-01T18:28:21;20.70;80.40
48454;DHT22;34261;55.678;12.464;2022-08-01T18:30:54;20.60;80.80
48454;DHT22;34261;55.678;12.464;2022-08-01T18:33:23;20.70;81.50
48454;DHT22;34261;55.678;12.464;2022-08-01T18:36:01;20.60;80.90
48454;DHT22;34261;55.678;12.464;2022-08-01T18:38:32;20.50;81.70
48454;DHT22;34261;55.678;12.464;2022-08-01T18:41:01;20.50;82.00
48454;DHT22;34261;55.678;12.464;2022-08-01T18:43:36;20.50;82.30
48454;DHT22;34261;55.678;12.464;2022-08-01T18:46:16;20.40;82.20
48454;DHT22;34261;55.678;12.464;2022-08-01T18:48:45;20.30;82.70
48454;DHT22;34261;55.678;12.464;2022-08-01T18:51:14;20.30;82.50
48454;DHT22;34261;55.678;12.464;2022-08-01T18:53:41;20.20;83.50
48454;DHT22;34261;55.678;12.464;2022-08-01T18:56:08;20.10;83.40
48454;DHT22;34261;55.678;12.464;2022-08-01T18:58:39;20.00;84.10
48454;DHT22;34261;55.678;12.464;2022-08-01T19:01:07;20.00;84.60
48454;DHT22;34261;55.678;12.464;2022-08-01T19:03:34;19.80;84.50
48454;DHT22;34261;55.678;12.464;2022-08-01T19:06:02;19.80;84.70
48454;DHT22;34261;55.678;12.464;2022-08-01T19:08:29;19.70;84.50
48454;DHT22;34261;55.678;12.464;2022-08-01T19:10:56;19.70;84.70
48454;DHT22;34261;55.678;12.464;2022-08-01T19:13:24;19.60;85.30
48454;DHT22;34261;55.678;12.464;2022-08-01T19:15:53;19.50;86.50
48454;DHT22;34261;55.678;12.464;2022-08-01T19:18:20;19.30;86.30
48454;DHT22;34261;55.678;12.464;2022-08-01T19:20:46;19.20;86.70
48454;DHT22;34261;55.678;12.464;2022-08-01T19:23:12;19.20;86.90
48454;DHT22;34261;55.678;12.464;2022-08-01T19:25:57;19.10;87.00
48454;DHT22;34261;55.678;12.464;2022-08-01T19:28:25;18.90;87.60
48454;DHT22;34261;55.678;12.464;2022-08-01T19:30:52;18.90;87.40
48454;DHT22;34261;55.678;12.464;2022-08-01T19:33:18;18.80;88.10
48454;DHT22;34261;55.678;12.464;2022-08-01T19:35:45;18.80;88.40
48454;DHT22;34261;55.678;12.464;2022-08-01T19:38:11;18.70;88.10